HOURLY OBS INDEX

022

Yorke Peninsula and Kangaroo Island

CAPE BORDA

Site: 022823
Alt: 158.0m
95km W of KINGSCOTE (KANGAROO ISLAND)


  Time     Wind        Temp  DP   Baro     Rain since   Rain past  Vis(m), Cloud(base in m), Weather
  local        km/h                         9am  last   hr   10m    
Sat 11:30   NW 11/ 17  15.6 11.7  1028.5    0.0   0.0   0.0   0.0   ----- 
Sat 11:30   NW 11/ 17  15.6 11.7  1028.5    0.0   0.0  ----   0.0   ----- 
Sat 12:00    W 13/ 20  16.0 11.4  1028.5    0.2   0.2   0.2   0.0   ----- 
Sat 12:30    W 13/ 20  15.8 11.5  1028.5    0.2   0.0   0.2   0.0   ----- 
Sat 12:30    W 13/ 20  15.8 11.5  1028.5    0.2   0.0  ----   0.0   ----- 
Sat 13:00  WSW 17/ 20  15.6 11.7  1028.2    0.2   0.0   0.0   0.0   ----- 
Sat 13:30    W 19/ 24  15.9 12.1  1027.9    0.2   0.0   0.0   0.0   ----- 
Sat 14:00   SW 17/ 22  16.6 11.8  1027.6    0.2   0.0   0.0   0.0   ----- 
Sat 14:30   SW 20/ 26  16.7 11.1  1027.5    0.2   0.0   0.0   0.0   ----- 
Sat 15:00   SW 20/ 28  16.7 11.7  1027.8    0.2   0.0   0.0   0.0   ----- 
Sat 15:30  SSW 22/ 28  16.3 10.5  1027.7    0.2   0.0   0.0   0.0   ----- 
Sat 16:00  SSW 22/ 30  15.8 10.7  1027.9    0.2   0.0   0.0   0.0   ----- 
Sat 16:30  SSW 20/ 28  15.8 11.3  1028.0    0.2   0.0   0.0   0.0   ----- 
Sat 16:30  SSW 20/ 28  15.8 11.3  1028.0    0.2   0.0  ----   0.0   ----- 

CAPE WILLOUGHBY

Site: 022803
Alt: 55.0m
49km ESE of KINGSCOTE (KANGAROO ISLAND)


  Time     Wind        Temp  DP   Baro     Rain since   Rain past  Vis(m), Cloud(base in m), Weather
  local        km/h                         9am  last   hr   10m    
Sat 11:30    S  9/ 11  14.8 12.5  1028.1    0.0   0.0   0.0   0.0   ----- 
Sat 11:30    S  9/ 11  14.8 12.5  1028.1    0.0   0.0  ----   0.0   ----- 
Sat 12:00    S  9/ 11  14.6 12.1  1028.1    0.0   0.0   0.0   0.0   ----- 
Sat 12:30    S  7/  9  15.3 12.4  1027.9    0.0   0.0   0.0   0.0   ----- 
Sat 12:30    S  7/  9  15.3 12.4  1027.9    0.0   0.0  ----   0.0   ----- 
Sat 13:00    S 11/ 13  15.0 11.8  1027.8    0.0   0.0   0.0   0.0   ----- 
Sat 13:30    S  6/  9  15.1 12.2  1027.8    0.0   0.0   0.0   0.0   ----- 
Sat 14:00  SSE  7/  9  15.0 11.8  1027.5    0.0   0.0   0.0   0.0   ----- 
Sat 14:30    S 17/ 22  14.7 11.7  1027.4    0.0   0.0   0.0   0.0   ----- 
Sat 15:00    S 17/ 22  14.8 11.9  1027.5    0.0   0.0   0.0   0.0   ----- 
Sat 15:30    S 17/ 20  14.6 11.9  1027.4    0.0   0.0   0.0   0.0   ----- 
Sat 16:00    S 11/ 17  14.4 11.9  1027.6    0.0   0.0   0.0   0.0   ----- 
Sat 16:30    S 13/ 20  14.4 11.9  1027.7    0.0   0.0   0.0   0.0   ----- 
Sat 16:30    S 13/ 20  14.4 11.9  1027.7    0.0   0.0  ----   0.0   ----- 

EDITHBURGH

Site: 022046
Alt: 6.0m
61km N of KINGSCOTE (KANGAROO ISLAND)


  Time     Wind        Temp  DP   Baro     Rain since   Rain past  Vis(m), Cloud(base in m), Weather
  local        km/h                         9am  last   hr   10m    
Sat 11:30   SE  9/ 13  16.1 12.0  1028.0    0.2   0.2   0.2   0.2   ----- 
Sat 11:30   SE  9/ 13  16.1 12.0  1028.0    0.2   0.0  ----   0.2   ----- 
Sat 12:00   SE  9/ 13  17.0 12.0  1027.7    0.2   0.0   0.2   0.0   ----- 
Sat 12:30   SE 13/ 17  16.3 11.5  1027.6    0.2   0.0   0.0   0.0   ----- 
Sat 12:30   SE 13/ 17  16.3 11.5  1027.6    0.2   0.0  ----   0.0   ----- 
Sat 13:00    S 15/ 19  17.2 12.3  1027.5    0.2   0.0   0.0   0.0   ----- 
Sat 13:30    S 11/ 17  17.7 12.0  1027.3    0.2   0.0   0.0   0.0   ----- 
Sat 14:00  SSW 13/ 22  17.2 11.7  1027.3    0.2   0.0   0.0   0.0   ----- 
Sat 14:30  SSW 13/ 19  17.4 11.3  1027.1    0.2   0.0   0.0   0.0   ----- 
Sat 15:00  SSW 11/ 19  18.4 10.5  1026.9    0.2   0.0   0.0   0.0   ----- 
Sat 15:30  SSW 17/ 22  18.2  9.8  1026.9    0.2   0.0   0.0   0.0   ----- 
Sat 16:00   SW 20/ 26  17.0 11.0  1027.1    0.2   0.0   0.0   0.0   ----- 
Sat 16:30  SSW 17/ 24  16.7 12.5  1027.4    0.2   0.0   0.0   0.0   ----- 
Sat 16:30  SSW 17/ 24  16.7 12.5  1027.4    0.2   0.0  ----   0.0   ----- 

KADINA AWS

Site: 022050
Alt: 41.1m
45km N of MAITLAND (YORKE PENINSULA)


  Time     Wind        Temp  DP   Baro     Rain since   Rain past  Vis(m), Cloud(base in m), Weather
  local        km/h                         9am  last   hr   10m    
Sat 11:30  WSW 17/ 22  22.1  8.2  1027.9    0.0   0.0   0.0   0.0   ----- 
Sat 11:30  WSW 17/ 22  22.1  8.2  1027.9    0.0   0.0  ----   0.0   ----- 
Sat 12:00   SW 20/ 30  22.5  7.1  1027.8    0.0   0.0   0.0   0.0   ----- 
Sat 12:30   SW 20/ 30  23.3  6.1  1027.3    0.0   0.0   0.0   0.0   ----- 
Sat 12:30   SW 20/ 30  23.3  6.1  1027.3    0.0   0.0  ----   0.0   ----- 
Sat 13:00   SW 24/ 32  23.3  5.7  1026.9    0.0   0.0   0.0   0.0   ----- 
Sat 13:30   SW 24/ 32  23.2  5.6  1026.6    0.0   0.0   0.0   0.0   ----- 
Sat 14:00   SW 22/ 28  23.9  4.8  1026.2    0.0   0.0   0.0   0.0   ----- 
Sat 14:30  SSW 22/ 32  24.1  5.0  1026.1    0.0   0.0   0.0   0.0   ----- 
Sat 15:00  SSW 24/ 35  24.6  3.8  1026.0    0.0   0.0   0.0   0.0   ----- 
Sat 15:30  SSW 24/ 32  23.4  2.3  1026.0    0.0   0.0   0.0   0.0   ----- 
Sat 16:00  SSW 30/ 37  22.6  6.4  1026.0    0.0   0.0   0.0   0.0   ----- 
Sat 16:30    S 30/ 37  22.0  4.6  1026.1    0.0   0.0   0.0   0.0   ----- 
Sat 16:30    S 30/ 37  22.0  4.6  1026.1    0.0   0.0  ----   0.0   ----- 

KINGSCOTE AERO

Site: 022841
Alt: 6.2m
12km WSW of KINGSCOTE (KANGAROO ISLAND)


  Time     Wind        Temp  DP   Baro     Rain since   Rain past  Vis(m), Cloud(base in m), Weather
  local        km/h                         9am  last   hr   10m    
Sat 11:30    E 11/ 17  18.6 13.0  1027.9    0.0   0.0   0.0   0.0   10000 
Sat 11:30    E 11/ 17  18.6 13.0  1027.9    0.0   0.0  ----   0.0   10000 
Sat 12:00  ESE  9/ 15  19.4 12.9  1027.6    0.0   0.0   0.0   0.0   10000 
Sat 12:30  ENE 15/ 20  20.6 15.2  1027.3    0.0   0.0   0.0   0.0   10000 
Sat 12:30  ENE 15/ 20  20.6 15.2  1027.3    0.0   0.0  ----   0.0   10000 
Sat 13:00    E  7/ 13  20.8 12.8  1027.1    0.0   0.0   0.0   0.0   10000 
Sat 13:30  SSE 13/ 19  20.8 13.7  1027.0    0.0   0.0   0.0   0.0   10000|SC1200 
Sat 14:00    S 17/ 24  20.7  9.3  1026.9    0.0   0.0   0.0   0.0   10000 
Sat 14:30    S 19/ 26  20.3 11.0  1026.9    0.0   0.0   0.0   0.0   10000 
Sat 15:00    S 19/ 26  20.0 12.0  1027.0    0.0   0.0   0.0   0.0   10000 
Sat 15:30    S 20/ 30  19.7 11.2  1026.9    0.0   0.0   0.0   0.0   10000 
Sat 16:00    S 20/ 30  19.4 10.7  1027.2    0.0   0.0   0.0   0.0   10000 
Sat 16:30    S 20/ 26  18.8 10.6  1027.4    0.0   0.0   0.0   0.0   10000 
Sat 16:30    S 20/ 26  18.8 10.6  1027.4    0.0   0.0  ----   0.0   10000 

MINLATON AERO

Site: 022031
Alt: 32.0m
44km SSW of MAITLAND (YORKE PENINSULA)


  Time     Wind        Temp  DP   Baro     Rain since   Rain past  Vis(m), Cloud(base in m), Weather
  local        km/h                         9am  last   hr   10m    
Sat 11:30    W 13/ 19  20.0  9.6  1028.0    0.0   0.0   0.0   0.0   ----- 
Sat 11:30    W 13/ 19  20.0  9.6  1028.0    0.0   0.0  ----   0.0   ----- 
Sat 12:00    W 17/ 24  20.6  8.9  1027.9    0.0   0.0   0.0   0.0   ----- 
Sat 12:30  WSW 17/ 20  20.7  8.7  1027.6    0.0   0.0   0.0   0.0   ----- 
Sat 12:30  WSW 17/ 20  20.7  8.7  1027.6    0.0   0.0  ----   0.0   ----- 
Sat 13:00  WSW 19/ 22  21.1 10.0  1027.3    0.0   0.0   0.0   0.0   ----- 
Sat 13:30  WSW 24/ 28  20.5  9.4  1027.0    0.0   0.0   0.0   0.0   ----- 
Sat 14:00    W 22/ 28  20.7 10.2  1026.9    0.0   0.0   0.0   0.0   ----- 
Sat 14:30    W 24/ 28  20.3  9.2  1026.7    0.0   0.0   0.0   0.0   ----- 
Sat 15:00    W 26/ 32  19.9  8.6  1026.7    0.0   0.0   0.0   0.0   ----- 
Sat 15:30  WSW 24/ 30  20.7  9.0  1026.6    0.0   0.0   0.0   0.0   ----- 
Sat 16:00  WSW 20/ 24  20.2  9.7  1026.8    0.0   0.0   0.0   0.0   ----- 
Sat 16:30  WSW 17/ 20  20.0 10.4  1026.9    0.0   0.0   0.0   0.0   ----- 
Sat 16:30  WSW 17/ 20  20.0 10.4  1026.9    0.0   0.0  ----   0.0   ----- 

MOONTA (WARBURTO POINT)

Site: 022053
Alt: 1.0m
43km NNW of MAITLAND (YORKE PENINSULA)


  Time     Wind        Temp  DP   Baro     Rain since   Rain past  Vis(m), Cloud(base in m), Weather
  local        km/h                         9am  last   hr   10m    
Sat 11:30  SSW 13/ 17 --------  ------   ----  ----  ----  ----   ----- 
Sat 11:30  SSW 13/ 17 --------  ------   ----  ----  ----  ----   ----- 
Sat 12:00  SSW 11/ 13 --------  ------   ----  ----  ----  ----   ----- 
Sat 12:30  SSW 17/ 19 --------  ------   ----  ----  ----  ----   ----- 
Sat 12:30  SSW 17/ 19 --------  ------   ----  ----  ----  ----   ----- 
Sat 13:00  SSW 15/ 19 --------  ------   ----  ----  ----  ----   ----- 
Sat 13:30  SSW 19/ 24 --------  ------   ----  ----  ----  ----   ----- 
Sat 14:00  SSW 19/ 26 --------  ------   ----  ----  ----  ----   ----- 
Sat 14:30  SSW 19/ 24 --------  ------   ----  ----  ----  ----   ----- 
Sat 15:00  SSW 20/ 26 --------  ------   ----  ----  ----  ----   ----- 
Sat 15:30  SSW 24/ 30 --------  ------   ----  ----  ----  ----   ----- 
Sat 16:00  SSW 24/ 30 --------  ------   ----  ----  ----  ----   ----- 
Sat 16:30  SSW 28/ 33 --------  ------   ----  ----  ----  ----   ----- 
Sat 16:30  SSW 28/ 33 --------  ------   ----  ----  ----  ----   ----- 

PARNDANA CFS AWS

Site: 022843
Alt: 165.0m
38km WSW of KINGSCOTE (KANGAROO ISLAND)


  Time     Wind        Temp  DP   Baro     Rain since   Rain past  Vis(m), Cloud(base in m), Weather
  local        km/h                         9am  last   hr   10m    
Sat 11:30    W  9/ 20  18.8 10.1  ------    0.0   0.0   0.0   0.0   ----- 
Sat 11:30    W  9/ 20  18.8 10.1  ------    0.0   0.0  ----   0.0   ----- 
Sat 12:00   SW 13/ 19  19.2  9.7  ------    0.0   0.0   0.0   0.0   ----- 
Sat 12:30    S 17/ 24  19.4 13.1  ------    0.0   0.0   0.0   0.0   ----- 
Sat 12:30    S 17/ 24  19.4 13.1  ------    0.0   0.0  ----   0.0   ----- 
Sat 13:00    S 19/ 26  18.6 13.9  ------    0.0   0.0   0.0   0.0   ----- 
Sat 13:30    S 20/ 28  18.6 13.0  ------    0.0   0.0   0.0   0.0   ----- 
Sat 14:00    S 19/ 26  18.4 13.3  ------    0.0   0.0   0.0   0.0   ----- 
Sat 14:30    S 17/ 22  18.3 13.0  ------    0.0   0.0   0.0   0.0   ----- 
Sat 15:00    S 19/ 26  18.2 11.3  ------    0.0   0.0   0.0   0.0   ----- 
Sat 15:30    S 19/ 28  17.5 10.9  ------    0.0   0.0   0.0   0.0   ----- 
Sat 16:00    S 19/ 26  17.3 11.1  ------    0.0   0.0   0.0   0.0   ----- 
Sat 16:30    S 17/ 22  16.8 11.3  ------    0.0   0.0   0.0   0.0   ----- 
Sat 16:30    S 17/ 22  16.8 11.3  ------    0.0   0.0  ----   0.0   ----- 

STENHOUSE BAY

Site: 022049
Alt: 42.0m
76km WNW of KINGSCOTE (KANGAROO ISLAND)


  Time     Wind        Temp  DP   Baro     Rain since   Rain past  Vis(m), Cloud(base in m), Weather
  local        km/h                         9am  last   hr   10m    
Sat 11:30  SSW 13/ 17  17.0 11.7  1028.1    0.0   0.0   0.0   0.0   ----- 
Sat 11:30  SSW 13/ 17  17.0 11.7  1028.1    0.0   0.0  ----   0.0   ----- 
Sat 12:00    S  9/ 15  16.7 11.0  1027.8    0.0   0.0   0.0   0.0   ----- 
Sat 12:30  SSW 15/ 20  17.0 11.3  1028.0    0.0   0.0   0.0   0.0   ----- 
Sat 12:30  SSW 15/ 20  17.0 11.3  1028.0    0.0   0.0  ----   0.0   ----- 
Sat 13:00  SSW 15/ 19  17.3 12.2  1027.8    0.0   0.0   0.0   0.0   ----- 
Sat 13:30  SSW 15/ 19  17.8 12.0  1027.6    0.0   0.0   0.0   0.0   ----- 
Sat 14:00   SW 15/ 20  17.9 11.7  1027.3    0.0   0.0   0.0   0.0   ----- 
Sat 14:30   SW 17/ 24  17.6 11.6  1027.2    0.0   0.0   0.0   0.0   ----- 
Sat 15:00   SW 17/ 20  17.9 12.1  1027.2    0.0   0.0   0.0   0.0   ----- 
Sat 15:30   SW 19/ 26  17.1 12.2  1027.3    0.0   0.0   0.0   0.0   ----- 
Sat 16:00   SW 20/ 24  17.0 12.5  1027.5    0.0   0.0   0.0   0.0   ----- 
Sat 16:30   SW 19/ 24  16.8 12.5  1027.6    0.0   0.0   0.0   0.0   ----- 
Sat 16:30   SW 19/ 24  16.8 12.5  1027.6    0.0   0.0  ----   0.0   -----